sensor_id;sensor_type;location;lat;lon;timestamp;temperature;humidity
57829;DHT22;43657;52.698;6.314;2022-08-19T00:35:16;14.50;99.90
57829;DHT22;43657;52.698;6.314;2022-08-19T00:37:41;14.40;99.90
57829;DHT22;43657;52.698;6.314;2022-08-19T00:40:10;14.50;99.90
57829;DHT22;43657;52.698;6.314;2022-08-19T00:42:36;14.40;99.90
57829;DHT22;43657;52.698;6.314;2022-08-19T00:45:11;14.40;99.90
57829;DHT22;43657;52.698;6.314;2022-08-19T00:47:37;14.40;99.90
57829;DHT22;43657;52.698;6.314;2022-08-19T00:50:03;14.30;99.90
57829;DHT22;43657;52.698;6.314;2022-08-19T00:52:32;14.30;99.90
57829;DHT22;43657;52.698;6.314;2022-08-19T00:54:59;14.30;99.90
57829;DHT22;43657;52.698;6.314;2022-08-19T00:57:33;14.30;99.90
57829;DHT22;43657;52.698;6.314;2022-08-19T01:00:00;14.30;99.90
57829;DHT22;43657;52.698;6.314;2022-08-19T01:02:29;14.30;99.90
57829;DHT22;43657;52.698;6.314;2022-08-19T01:04:55;14.20;99.90
57829;DHT22;43657;52.698;6.314;2022-08-19T01:07:21;14.20;99.90
57829;DHT22;43657;52.698;6.314;2022-08-19T01:09:47;14.20;99.90
57829;DHT22;43657;52.698;6.314;2022-08-19T01:12:13;14.20;99.90
57829;DHT22;43657;52.698;6.314;2022-08-19T01:18:15;14.10;99.90
57829;DHT22;43657;52.698;6.314;2022-08-19T01:20:42;14.10;99.90
57829;DHT22;43657;52.698;6.314;2022-08-19T01:23:08;14.10;99.90
57829;DHT22;43657;52.698;6.314;2022-08-19T01:25:46;14.10;99.90
57829;DHT22;43657;52.698;6.314;2022-08-19T01:28:22;14.10;99.90
57829;DHT22;43657;52.698;6.314;2022-08-19T01:30:48;14.00;99.90
57829;DHT22;43657;52.698;6.314;2022-08-19T01:33:14;14.00;99.90
57829;DHT22;43657;52.698;6.314;2022-08-19T01:35:41;14.00;99.90
57829;DHT22;43657;52.698;6.314;2022-08-19T01:38:09;14.00;99.90
57829;DHT22;43657;52.698;6.314;2022-08-19T01:40:38;14.00;99.90
57829;DHT22;43657;52.698;6.314;2022-08-19T01:43:04;14.00;99.90
57829;DHT22;43657;52.698;6.314;2022-08-19T01:45:32;13.90;99.90
57829;DHT22;43657;52.698;6.314;2022-08-19T01:48:00;13.90;99.90
57829;DHT22;43657;52.698;6.314;2022-08-19T01:50:26;13.90;99.90
57829;DHT22;43657;52.698;6.314;2022-08-19T01:52:53;13.90;99.90
57829;DHT22;43657;52.698;6.314;2022-08-19T01:55:20;13.90;99.90
57829;DHT22;43657;52.698;6.314;2022-08-19T01:57:54;13.80;99.90
57829;DHT22;43657;52.698;6.314;2022-08-19T02:00:23;13.80;99.90
57829;DHT22;43657;52.698;6.314;2022-08-19T02:02:49;13.80;99.90
57829;DHT22;43657;52.698;6.314;2022-08-19T02:05:15;13.70;99.90
57829;DHT22;43657;52.698;6.314;2022-08-19T02:07:43;13.70;99.90
57829;DHT22;43657;52.698;6.314;2022-08-19T02:10:16;13.70;99.90
57829;DHT22;43657;52.698;6.314;2022-08-19T02:12:42;13.70;99.90
57829;DHT22;43657;52.698;6.314;2022-08-19T02:15:09;13.60;99.90
57829;DHT22;43657;52.698;6.314;2022-08-19T02:17:35;13.60;99.90
57829;DHT22;43657;52.698;6.314;2022-08-19T02:20:00;13.60;99.90
57829;DHT22;43657;52.698;6.314;2022-08-19T02:22:26;13.50;99.90
57829;DHT22;43657;52.698;6.314;2022-08-19T02:24:53;13.50;99.90
57829;DHT22;43657;52.698;6.314;2022-08-19T02:27:19;13.50;99.90
57829;DHT22;43657;52.698;6.314;2022-08-19T02:29:46;13.50;99.90
57829;DHT22;43657;52.698;6.314;2022-08-19T02:32:13;13.50;99.90
57829;DHT22;43657;52.698;6.314;2022-08-19T02:34:39;13.50;99.90
57829;DHT22;43657;52.698;6.314;2022-08-19T02:37:05;13.50;99.90
57829;DHT22;43657;52.698;6.314;2022-08-19T02:39:30;13.50;99.90
57829;DHT22;43657;52.698;6.314;2022-08-19T02:41:56;13.40;99.90
57829;DHT22;43657;52.698;6.314;2022-08-19T02:44:22;13.40;99.90
57829;DHT22;43657;52.698;6.314;2022-08-19T02:46:48;13.30;99.90
57829;DHT22;43657;52.698;6.314;2022-08-19T02:49:15;13.40;99.90
57829;DHT22;43657;52.698;6.314;2022-08-19T02:51:43;13.40;99.90
57829;DHT22;43657;52.698;6.314;2022-08-19T02:54:10;13.30;99.90
57829;DHT22;43657;52.698;6.314;2022-08-19T02:56:39;13.30;99.90
57829;DHT22;43657;52.698;6.314;2022-08-19T02:59:05;13.30;99.90
57829;DHT22;43657;52.698;6.314;2022-08-19T03:01:34;13.30;99.90
57829;DHT22;43657;52.698;6.314;2022-08-19T03:04:01;13.30;99.90
57829;DHT22;43657;52.698;6.314;2022-08-19T03:06:28;13.20;99.90
57829;DHT22;43657;52.698;6.314;2022-08-19T03:08:54;13.30;99.90
57829;DHT22;43657;52.698;6.314;2022-08-19T03:11:27;13.20;99.90
57829;DHT22;43657;52.698;6.314;2022-08-19T03:13:53;13.20;99.90
57829;DHT22;43657;52.698;6.314;2022-08-19T03:16:21;13.20;99.90
57829;DHT22;43657;52.698;6.314;2022-08-19T03:18:47;13.20;99.90
57829;DHT22;43657;52.698;6.314;2022-08-19T03:21:21;13.20;99.90
57829;DHT22;43657;52.698;6.314;2022-08-19T03:23:48;13.10;99.90
57829;DHT22;43657;52.698;6.314;2022-08-19T03:26:13;13.00;99.90
57829;DHT22;43657;52.698;6.314;2022-08-19T03:28:43;13.10;99.90
57829;DHT22;43657;52.698;6.314;2022-08-19T03:31:13;13.00;99.90
57829;DHT22;43657;52.698;6.314;2022-08-19T03:33:40;13.00;99.90
57829;DHT22;43657;52.698;6.314;2022-08-19T03:36:19;13.00;99.90
57829;DHT22;43657;52.698;6.314;2022-08-19T03:38:48;13.00;99.90
57829;DHT22;43657;52.698;6.314;2022-08-19T03:41:17;13.00;99.90
57829;DHT22;43657;52.698;6.314;2022-08-19T03:43:44;13.00;99.90
57829;DHT22;43657;52.698;6.314;2022-08-19T03:46:15;12.90;99.90
57829;DHT22;43657;52.698;6.314;2022-08-19T03:48:43;12.90;99.90
57829;DHT22;43657;52.698;6.314;2022-08-19T03:51:17;13.00;99.90
57829;DHT22;43657;52.698;6.314;2022-08-19T03:53:44;12.90;99.90
57829;DHT22;43657;52.698;6.314;2022-08-19T03:56:10;12.90;99.90
57829;DHT22;43657;52.698;6.314;2022-08-19T03:58:35;12.90;99.90
57829;DHT22;43657;52.698;6.314;2022-08-19T04:01:06;12.90;99.90
57829;DHT22;43657;52.698;6.314;2022-08-19T04:03:32;12.80;99.90
57829;DHT22;43657;52.698;6.314;2022-08-19T04:05:57;12.80;99.90
57829;DHT22;43657;52.698;6.314;2022-08-19T04:08:23;12.80;99.90
57829;DHT22;43657;52.698;6.314;2022-08-19T04:10:49;12.80;99.90
57829;DHT22;43657;52.698;6.314;2022-08-19T04:13:17;12.80;99.90
57829;DHT22;43657;52.698;6.314;2022-08-19T04:15:44;12.80;99.90
57829;DHT22;43657;52.698;6.314;2022-08-19T04:18:10;12.80;99.90
57829;DHT22;43657;52.698;6.314;2022-08-19T04:20:44;12.80;99.90
57829;DHT22;43657;52.698;6.314;2022-08-19T04:23:12;12.70;99.90
57829;DHT22;43657;52.698;6.314;2022-08-19T04:25:40;12.70;99.90
57829;DHT22;43657;52.698;6.314;2022-08-19T04:28:07;12.70;99.90
57829;DHT22;43657;52.698;6.314;2022-08-19T04:30:45;12.80;99.90
57829;DHT22;43657;52.698;6.314;2022-08-19T04:33:14;12.90;99.90
57829;DHT22;43657;52.698;6.314;2022-08-19T04:35:43;12.90;99.90
57829;DHT22;43657;52.698;6.314;2022-08-19T04:38:10;12.90;99.90
57829;DHT22;43657;52.698;6.314;2022-08-19T04:40:45;13.00;99.90
57829;DHT22;43657;52.698;6.314;2022-08-19T04:43:30;13.10;99.90
57829;DHT22;43657;52.698;6.314;2022-08-19T04:45:56;13.20;99.90
57829;DHT22;43657;52.698;6.314;2022-08-19T04:48:21;13.10;99.90
57829;DHT22;43657;52.698;6.314;2022-08-19T04:50:57;13.10;99.90
57829;DHT22;43657;52.698;6.314;2022-08-19T04:53:28;13.10;99.90
57829;DHT22;43657;52.698;6.314;2022-08-19T04:55:56;13.10;99.90
57829;DHT22;43657;52.698;6.314;2022-08-19T04:58:22;13.10;99.90
57829;DHT22;43657;52.698;6.314;2022-08-19T05:00:48;13.20;99.90
57829;DHT22;43657;52.698;6.314;2022-08-19T05:03:14;13.20;99.90
57829;DHT22;43657;52.698;6.314;2022-08-19T05:05:46;13.20;99.90
57829;DHT22;43657;52.698;6.314;2022-08-19T05:08:15;13.20;99.90
57829;DHT22;43657;52.698;6.314;2022-08-19T05:10:49;13.30;99.90
57829;DHT22;43657;52.698;6.314;2022-08-19T05:13:18;13.30;99.90
57829;DHT22;43657;52.698;6.314;2022-08-19T05:15:52;13.20;99.90
57829;DHT22;43657;52.698;6.314;2022-08-19T05:18:18;13.20;99.90
57829;DHT22;43657;52.698;6.314;2022-08-19T05:21:09;13.30;99.90
57829;DHT22;43657;52.698;6.314;2022-08-19T05:23:53;13.30;99.90
57829;DHT22;43657;52.698;6.314;2022-08-19T05:26:19;13.20;99.90
57829;DHT22;43657;52.698;6.314;2022-08-19T05:28:44;13.30;99.90
57829;DHT22;43657;52.698;6.314;2022-08-19T05:31:10;13.30;99.90
57829;DHT22;43657;52.698;6.314;2022-08-19T05:33:35;13.40;99.90
57829;DHT22;43657;52.698;6.314;2022-08-19T05:36:02;13.40;99.90
57829;DHT22;43657;52.698;6.314;2022-08-19T05:38:27;13.40;99.90
57829;DHT22;43657;52.698;6.314;2022-08-19T05:40:53;13.50;99.90
57829;DHT22;43657;52.698;6.314;2022-08-19T05:43:19;13.50;99.90
57829;DHT22;43657;52.698;6.314;2022-08-19T05:45:45;13.60;99.90
57829;DHT22;43657;52.698;6.314;2022-08-19T05:48:11;13.70;99.90
57829;DHT22;43657;52.698;6.314;2022-08-19T05:50:39;13.80;99.90
57829;DHT22;43657;52.698;6.314;2022-08-19T05:53:05;13.90;99.90
57829;DHT22;43657;52.698;6.314;2022-08-19T05:55:31;14.00;99.90
57829;DHT22;43657;52.698;6.314;2022-08-19T05:57:57;14.10;99.90
57829;DHT22;43657;52.698;6.314;2022-08-19T06:00:23;14.20;99.90
57829;DHT22;43657;52.698;6.314;2022-08-19T06:02:49;14.30;99.90
57829;DHT22;43657;52.698;6.314;2022-08-19T06:05:14;14.50;99.90
57829;DHT22;43657;52.698;6.314;2022-08-19T06:07:40;14.60;99.90
57829;DHT22;43657;52.698;6.314;2022-08-19T06:10:08;14.50;99.90
57829;DHT22;43657;52.698;6.314;2022-08-19T06:12:34;14.70;99.90
57829;DHT22;43657;52.698;6.314;2022-08-19T06:15:04;14.80;99.90
57829;DHT22;43657;52.698;6.314;2022-08-19T06:17:30;14.90;99.90
57829;DHT22;43657;52.698;6.314;2022-08-19T06:19:56;15.00;99.90
57829;DHT22;43657;52.698;6.314;2022-08-19T06:22:22;15.10;99.90
57829;DHT22;43657;52.698;6.314;2022-08-19T06:24:48;15.20;99.90
57829;DHT22;43657;52.698;6.314;2022-08-19T06:27:18;15.30;99.90
57829;DHT22;43657;52.698;6.314;2022-08-19T06:29:43;15.40;99.90
57829;DHT22;43657;52.698;6.314;2022-08-19T06:32:10;15.50;99.90
57829;DHT22;43657;52.698;6.314;2022-08-19T06:34:36;15.60;99.90
57829;DHT22;43657;52.698;6.314;2022-08-19T06:37:02;15.70;99.90
57829;DHT22;43657;52.698;6.314;2022-08-19T06:39:34;15.80;99.90
57829;DHT22;43657;52.698;6.314;2022-08-19T06:42:02;15.90;99.90
57829;DHT22;43657;52.698;6.314;2022-08-19T06:44:30;16.10;99.90
57829;DHT22;43657;52.698;6.314;2022-08-19T06:47:02;16.20;99.90
57829;DHT22;43657;52.698;6.314;2022-08-19T06:49:28;16.30;99.90
57829;DHT22;43657;52.698;6.314;2022-08-19T06:51:56;16.40;99.90
57829;DHT22;43657;52.698;6.314;2022-08-19T06:54:24;16.60;99.90
57829;DHT22;43657;52.698;6.314;2022-08-19T06:56:51;16.80;99.90
57829;DHT22;43657;52.698;6.314;2022-08-19T06:59:22;16.90;99.90
57829;DHT22;43657;52.698;6.314;2022-08-19T07:01:54;17.00;99.90
57829;DHT22;43657;52.698;6.314;2022-08-19T07:04:22;17.10;99.90
57829;DHT22;43657;52.698;6.314;2022-08-19T07:06:49;17.20;99.90
57829;DHT22;43657;52.698;6.314;2022-08-19T07:09:17;17.30;99.90
57829;DHT22;43657;52.698;6.314;2022-08-19T07:11:49;17.40;99.90
57829;DHT22;43657;52.698;6.314;2022-08-19T07:14:16;17.50;99.90
57829;DHT22;43657;52.698;6.314;2022-08-19T07:16:43;17.60;99.90
57829;DHT22;43657;52.698;6.314;2022-08-19T07:19:11;17.70;99.90
57829;DHT22;43657;52.698;6.314;2022-08-19T07:21:38;17.70;99.90
57829;DHT22;43657;52.698;6.314;2022-08-19T07:24:04;17.90;99.90
57829;DHT22;43657;52.698;6.314;2022-08-19T07:26:32;17.90;99.90
57829;DHT22;43657;52.698;6.314;2022-08-19T07:28:59;18.00;99.90
57829;DHT22;43657;52.698;6.314;2022-08-19T07:31:27;18.10;99.90
57829;DHT22;43657;52.698;6.314;2022-08-19T07:33:54;18.20;99.90
57829;DHT22;43657;52.698;6.314;2022-08-19T07:36:26;18.20;99.90
57829;DHT22;43657;52.698;6.314;2022-08-19T07:38:59;18.30;99.90
57829;DHT22;43657;52.698;6.314;2022-08-19T07:41:27;18.40;99.90
57829;DHT22;43657;52.698;6.314;2022-08-19T07:43:54;18.50;99.90
57829;DHT22;43657;52.698;6.314;2022-08-19T07:46:20;18.60;99.90
57829;DHT22;43657;52.698;6.314;2022-08-19T07:48:48;18.70;99.90
57829;DHT22;43657;52.698;6.314;2022-08-19T07:51:17;18.70;99.90
57829;DHT22;43657;52.698;6.314;2022-08-19T07:53:44;18.80;99.90
57829;DHT22;43657;52.698;6.314;2022-08-19T07:56:14;18.90;99.90
57829;DHT22;43657;52.698;6.314;2022-08-19T07:58:42;19.00;99.90
57829;DHT22;43657;52.698;6.314;2022-08-19T08:01:10;19.10;99.90
57829;DHT22;43657;52.698;6.314;2022-08-19T08:03:37;19.20;99.90
57829;DHT22;43657;52.698;6.314;2022-08-19T08:06:22;19.30;99.90
57829;DHT22;43657;52.698;6.314;2022-08-19T08:09:06;19.50;99.90
57829;DHT22;43657;52.698;6.314;2022-08-19T08:14:23;19.70;99.90
57829;DHT22;43657;52.698;6.314;2022-08-19T08:16:50;19.80;99.90
57829;DHT22;43657;52.698;6.314;2022-08-19T08:19:18;19.90;99.90
57829;DHT22;43657;52.698;6.314;2022-08-19T08:21:44;20.10;99.90
57829;DHT22;43657;52.698;6.314;2022-08-19T08:24:10;20.20;99.90
57829;DHT22;43657;52.698;6.314;2022-08-19T08:26:36;20.30;99.90
57829;DHT22;43657;52.698;6.314;2022-08-19T08:29:02;20.50;99.90
57829;DHT22;43657;52.698;6.314;2022-08-19T08:31:28;21.10;99.90
57829;DHT22;43657;52.698;6.314;2022-08-19T08:33:54;21.90;99.90
57829;DHT22;43657;52.698;6.314;2022-08-19T08:36:20;22.70;99.90
57829;DHT22;43657;52.698;6.314;2022-08-19T08:38:46;23.50;99.90
57829;DHT22;43657;52.698;6.314;2022-08-19T08:43:59;24.90;99.90
57829;DHT22;43657;52.698;6.314;2022-08-19T08:46:38;25.40;99.90
57829;DHT22;43657;52.698;6.314;2022-08-19T08:49:16;26.00;99.90
57829;DHT22;43657;52.698;6.314;2022-08-19T08:52:06;26.40;99.90
57829;DHT22;43657;52.698;6.314;2022-08-19T08:54:37;26.90;99.90
57829;DHT22;43657;52.698;6.314;2022-08-19T08:57:09;27.20;99.90
57829;DHT22;43657;52.698;6.314;2022-08-19T08:59:38;27.50;99.90
57829;DHT22;43657;52.698;6.314;2022-08-19T09:02:04;27.70;99.90
57829;DHT22;43657;52.698;6.314;2022-08-19T09:04:30;27.90;99.90
57829;DHT22;43657;52.698;6.314;2022-08-19T09:09:49;28.40;99.90
57829;DHT22;43657;52.698;6.314;2022-08-19T09:12:53;28.40;99.90
57829;DHT22;43657;52.698;6.314;2022-08-19T09:15:29;28.60;99.90
57829;DHT22;43657;52.698;6.314;2022-08-19T09:18:04;28.80;99.90
57829;DHT22;43657;52.698;6.314;2022-08-19T09:20:32;29.00;99.90
57829;DHT22;43657;52.698;6.314;2022-08-19T09:22:58;29.10;99.90
57829;DHT22;43657;52.698;6.314;2022-08-19T09:25:24;29.20;99.90
57829;DHT22;43657;52.698;6.314;2022-08-19T09:27:52;29.30;99.90
57829;DHT22;43657;52.698;6.314;2022-08-19T09:30:27;29.40;99.90
57829;DHT22;43657;52.698;6.314;2022-08-19T09:32:53;29.50;99.90
57829;DHT22;43657;52.698;6.314;2022-08-19T09:35:22;29.70;99.90
57829;DHT22;43657;52.698;6.314;2022-08-19T09:37:48;29.90;99.90
57829;DHT22;43657;52.698;6.314;2022-08-19T09:40:15;30.00;97.90
57829;DHT22;43657;52.698;6.314;2022-08-19T09:42:41;30.00;94.90
57829;DHT22;43657;52.698;6.314;2022-08-19T09:45:09;30.00;93.90
57829;DHT22;43657;52.698;6.314;2022-08-19T09:47:35;30.00;93.70
57829;DHT22;43657;52.698;6.314;2022-08-19T09:50:05;30.10;93.80
57829;DHT22;43657;52.698;6.314;2022-08-19T09:52:31;30.10;91.80
57829;DHT22;43657;52.698;6.314;2022-08-19T09:54:57;30.20;92.00
57829;DHT22;43657;52.698;6.314;2022-08-19T09:57:22;30.30;91.30
57829;DHT22;43657;52.698;6.314;2022-08-19T09:59:48;30.40;90.50
57829;DHT22;43657;52.698;6.314;2022-08-19T10:02:13;30.40;88.50
57829;DHT22;43657;52.698;6.314;2022-08-19T10:04:39;30.40;86.80
57829;DHT22;43657;52.698;6.314;2022-08-19T10:07:23;30.50;86.70
57829;DHT22;43657;52.698;6.314;2022-08-19T10:09:50;30.60;87.00
57829;DHT22;43657;52.698;6.314;2022-08-19T10:12:15;30.70;85.20
57829;DHT22;43657;52.698;6.314;2022-08-19T10:14:41;30.80;83.20
57829;DHT22;43657;52.698;6.314;2022-08-19T10:17:08;30.90;83.00
57829;DHT22;43657;52.698;6.314;2022-08-19T10:19:34;31.00;83.20
57829;DHT22;43657;52.698;6.314;2022-08-19T10:22:07;31.10;82.20
57829;DHT22;43657;52.698;6.314;2022-08-19T10:24:34;31.20;77.80
57829;DHT22;43657;52.698;6.314;2022-08-19T10:27:00;31.10;78.60
57829;DHT22;43657;52.698;6.314;2022-08-19T10:29:30;30.70;77.80
57829;DHT22;43657;52.698;6.314;2022-08-19T10:31:57;30.50;79.80
57829;DHT22;43657;52.698;6.314;2022-08-19T10:34:26;30.60;80.40
57829;DHT22;43657;52.698;6.314;2022-08-19T10:36:52;30.60;79.50
57829;DHT22;43657;52.698;6.314;2022-08-19T10:39:17;30.40;79.10
57829;DHT22;43657;52.698;6.314;2022-08-19T10:41:43;30.10;79.30
57829;DHT22;43657;52.698;6.314;2022-08-19T10:44:11;29.80;78.70
57829;DHT22;43657;52.698;6.314;2022-08-19T10:46:42;29.50;79.50
57829;DHT22;43657;52.698;6.314;2022-08-19T10:49:09;29.60;78.80
57829;DHT22;43657;52.698;6.314;2022-08-19T10:51:35;29.70;80.20
57829;DHT22;43657;52.698;6.314;2022-08-19T10:54:19;30.00;80.00
57829;DHT22;43657;52.698;6.314;2022-08-19T10:56:45;30.20;78.60
57829;DHT22;43657;52.698;6.314;2022-08-19T11:01:47;30.40;76.30
57829;DHT22;43657;52.698;6.314;2022-08-19T11:04:14;30.40;77.40
57829;DHT22;43657;52.698;6.314;2022-08-19T11:06:46;30.40;76.10
57829;DHT22;43657;52.698;6.314;2022-08-19T11:09:24;30.50;76.40
57829;DHT22;43657;52.698;6.314;2022-08-19T11:11:50;30.60;74.90
57829;DHT22;43657;52.698;6.314;2022-08-19T11:14:18;30.70;75.60
57829;DHT22;43657;52.698;6.314;2022-08-19T11:16:45;30.70;75.50
57829;DHT22;43657;52.698;6.314;2022-08-19T11:19:11;30.70;74.90
57829;DHT22;43657;52.698;6.314;2022-08-19T11:21:41;30.70;74.80
57829;DHT22;43657;52.698;6.314;2022-08-19T11:24:12;30.70;74.40
57829;DHT22;43657;52.698;6.314;2022-08-19T11:26:39;30.70;74.20
57829;DHT22;43657;52.698;6.314;2022-08-19T11:29:06;30.70;73.70
57829;DHT22;43657;52.698;6.314;2022-08-19T11:31:37;30.60;74.30
57829;DHT22;43657;52.698;6.314;2022-08-19T11:34:07;30.70;74.20
57829;DHT22;43657;52.698;6.314;2022-08-19T11:36:34;30.80;73.90
57829;DHT22;43657;52.698;6.314;2022-08-19T11:39:04;30.90;74.20
57829;DHT22;43657;52.698;6.314;2022-08-19T11:41:30;31.20;73.80
57829;DHT22;43657;52.698;6.314;2022-08-19T11:43:55;31.40;73.50
57829;DHT22;43657;52.698;6.314;2022-08-19T11:46:23;31.40;72.40
57829;DHT22;43657;52.698;6.314;2022-08-19T11:48:49;31.20;71.60
57829;DHT22;43657;52.698;6.314;2022-08-19T11:51:19;31.10;71.70
57829;DHT22;43657;52.698;6.314;2022-08-19T11:53:46;30.90;71.20
57829;DHT22;43657;52.698;6.314;2022-08-19T11:56:12;30.80;72.00
57829;DHT22;43657;52.698;6.314;2022-08-19T11:58:38;30.60;72.20
57829;DHT22;43657;52.698;6.314;2022-08-19T12:01:08;30.60;72.10
57829;DHT22;43657;52.698;6.314;2022-08-19T12:03:34;30.50;72.30
57829;DHT22;43657;52.698;6.314;2022-08-19T12:06:08;30.20;72.30
57829;DHT22;43657;52.698;6.314;2022-08-19T12:08:35;30.10;72.20
57829;DHT22;43657;52.698;6.314;2022-08-19T12:11:01;29.90;71.70
57829;DHT22;43657;52.698;6.314;2022-08-19T12:13:30;29.80;72.40
57829;DHT22;43657;52.698;6.314;2022-08-19T12:15:56;29.70;73.20
57829;DHT22;43657;52.698;6.314;2022-08-19T12:18:23;29.70;72.60
57829;DHT22;43657;52.698;6.314;2022-08-19T12:20:51;29.80;73.30
57829;DHT22;43657;52.698;6.314;2022-08-19T12:23:17;29.80;73.60
57829;DHT22;43657;52.698;6.314;2022-08-19T12:25:45;30.00;73.70
57829;DHT22;43657;52.698;6.314;2022-08-19T12:28:19;30.40;73.10
57829;DHT22;43657;52.698;6.314;2022-08-19T12:30:46;30.60;72.80
57829;DHT22;43657;52.698;6.314;2022-08-19T12:33:12;30.60;72.10
57829;DHT22;43657;52.698;6.314;2022-08-19T12:35:41;30.50;72.40
57829;DHT22;43657;52.698;6.314;2022-08-19T12:38:07;30.50;72.30
57829;DHT22;43657;52.698;6.314;2022-08-19T12:40:33;30.50;71.70
57829;DHT22;43657;52.698;6.314;2022-08-19T12:42:58;30.50;71.20
57829;DHT22;43657;52.698;6.314;2022-08-19T12:45:24;30.40;71.60
57829;DHT22;43657;52.698;6.314;2022-08-19T12:47:50;30.40;72.40
57829;DHT22;43657;52.698;6.314;2022-08-19T12:50:17;30.50;72.40
57829;DHT22;43657;52.698;6.314;2022-08-19T12:52:42;30.50;72.40
57829;DHT22;43657;52.698;6.314;2022-08-19T12:55:08;30.40;71.60
57829;DHT22;43657;52.698;6.314;2022-08-19T12:57:35;30.30;72.90
57829;DHT22;43657;52.698;6.314;2022-08-19T13:00:09;30.40;71.10
57829;DHT22;43657;52.698;6.314;2022-08-19T13:02:38;30.30;71.20
57829;DHT22;43657;52.698;6.314;2022-08-19T13:05:05;30.30;71.10
57829;DHT22;43657;52.698;6.314;2022-08-19T13:07:32;30.20;71.30
57829;DHT22;43657;52.698;6.314;2022-08-19T13:09:58;30.00;71.90
57829;DHT22;43657;52.698;6.314;2022-08-19T13:12:24;30.10;72.30
57829;DHT22;43657;52.698;6.314;2022-08-19T13:14:52;30.20;70.50
57829;DHT22;43657;52.698;6.314;2022-08-19T13:17:17;30.40;70.00
57829;DHT22;43657;52.698;6.314;2022-08-19T13:19:43;30.50;70.80
57829;DHT22;43657;52.698;6.314;2022-08-19T13:22:09;30.80;70.50
57829;DHT22;43657;52.698;6.314;2022-08-19T13:24:34;31.00;70.00
57829;DHT22;43657;52.698;6.314;2022-08-19T13:27:02;31.20;69.60
57829;DHT22;43657;52.698;6.314;2022-08-19T13:29:28;31.20;68.30
57829;DHT22;43657;52.698;6.314;2022-08-19T13:32:12;31.40;67.70
57829;DHT22;43657;52.698;6.314;2022-08-19T13:34:56;31.50;67.10
57829;DHT22;43657;52.698;6.314;2022-08-19T13:37:22;31.70;67.30
57829;DHT22;43657;52.698;6.314;2022-08-19T13:40:07;31.90;67.10
57829;DHT22;43657;52.698;6.314;2022-08-19T13:42:41;32.10;67.10
57829;DHT22;43657;52.698;6.314;2022-08-19T13:45:07;31.90;67.40
57829;DHT22;43657;52.698;6.314;2022-08-19T13:47:34;31.80;68.10
57829;DHT22;43657;52.698;6.314;2022-08-19T13:50:02;31.70;68.00
57829;DHT22;43657;52.698;6.314;2022-08-19T13:52:28;31.30;68.30
57829;DHT22;43657;52.698;6.314;2022-08-19T13:54:54;31.00;69.30
57829;DHT22;43657;52.698;6.314;2022-08-19T13:57:20;30.60;69.20
57829;DHT22;43657;52.698;6.314;2022-08-19T13:59:45;30.10;69.60
57829;DHT22;43657;52.698;6.314;2022-08-19T14:02:11;29.70;70.10
57829;DHT22;43657;52.698;6.314;2022-08-19T14:04:37;29.40;71.10
57829;DHT22;43657;52.698;6.314;2022-08-19T14:07:03;29.00;72.10
57829;DHT22;43657;52.698;6.314;2022-08-19T14:09:29;28.80;72.90
57829;DHT22;43657;52.698;6.314;2022-08-19T14:11:55;28.80;73.90
57829;DHT22;43657;52.698;6.314;2022-08-19T14:14:21;28.70;73.50
57829;DHT22;43657;52.698;6.314;2022-08-19T14:16:47;28.50;73.70
57829;DHT22;43657;52.698;6.314;2022-08-19T14:19:13;28.40;74.40
57829;DHT22;43657;52.698;6.314;2022-08-19T14:21:39;28.40;74.80
57829;DHT22;43657;52.698;6.314;2022-08-19T14:24:06;28.30;75.50
57829;DHT22;43657;52.698;6.314;2022-08-19T14:26:32;28.20;75.10
57829;DHT22;43657;52.698;6.314;2022-08-19T14:28:57;28.10;75.50
57829;DHT22;43657;52.698;6.314;2022-08-19T14:31:23;27.90;75.90
57829;DHT22;43657;52.698;6.314;2022-08-19T14:33:50;27.70;76.20
57829;DHT22;43657;52.698;6.314;2022-08-19T14:36:17;27.60;76.60
57829;DHT22;43657;52.698;6.314;2022-08-19T14:38:43;27.40;76.80
57829;DHT22;43657;52.698;6.314;2022-08-19T14:41:17;27.20;77.30
57829;DHT22;43657;52.698;6.314;2022-08-19T14:43:45;27.00;78.20
57829;DHT22;43657;52.698;6.314;2022-08-19T14:46:14;26.90;79.10
57829;DHT22;43657;52.698;6.314;2022-08-19T14:48:40;26.70;79.60
57829;DHT22;43657;52.698;6.314;2022-08-19T14:51:06;26.60;80.80
57829;DHT22;43657;52.698;6.314;2022-08-19T14:53:32;26.40;82.00
57829;DHT22;43657;52.698;6.314;2022-08-19T14:55:59;26.30;82.50
57829;DHT22;43657;52.698;6.314;2022-08-19T14:58:25;26.10;83.10
57829;DHT22;43657;52.698;6.314;2022-08-19T15:00:50;26.00;84.00
57829;DHT22;43657;52.698;6.314;2022-08-19T15:03:24;25.80;84.00
57829;DHT22;43657;52.698;6.314;2022-08-19T15:05:52;25.70;85.50
57829;DHT22;43657;52.698;6.314;2022-08-19T15:08:28;25.60;86.40
57829;DHT22;43657;52.698;6.314;2022-08-19T15:10:57;25.50;90.00
57829;DHT22;43657;52.698;6.314;2022-08-19T15:13:48;25.40;88.90
57829;DHT22;43657;52.698;6.314;2022-08-19T15:16:24;25.20;89.80
57829;DHT22;43657;52.698;6.314;2022-08-19T15:18:58;25.10;90.60
57829;DHT22;43657;52.698;6.314;2022-08-19T15:21:33;25.10;91.40
57829;DHT22;43657;52.698;6.314;2022-08-19T15:24:03;25.00;91.80
57829;DHT22;43657;52.698;6.314;2022-08-19T15:27:02;25.00;92.60
57829;DHT22;43657;52.698;6.314;2022-08-19T15:29:38;24.90;94.00
57829;DHT22;43657;52.698;6.314;2022-08-19T15:32:15;24.90;94.30
57829;DHT22;43657;52.698;6.314;2022-08-19T15:34:50;24.90;95.60
57829;DHT22;43657;52.698;6.314;2022-08-19T15:40:41;24.80;96.00
57829;DHT22;43657;52.698;6.314;2022-08-19T15:43:15;24.70;96.60
57829;DHT22;43657;52.698;6.314;2022-08-19T15:46:10;24.60;95.90
57829;DHT22;43657;52.698;6.314;2022-08-19T15:49:28;24.50;96.60
57829;DHT22;43657;52.698;6.314;2022-08-19T15:55:26;24.30;97.90
57829;DHT22;43657;52.698;6.314;2022-08-19T16:02:12;24.30;99.40
57829;DHT22;43657;52.698;6.314;2022-08-19T16:05:00;24.30;99.90
57829;DHT22;43657;52.698;6.314;2022-08-19T16:07:44;24.30;99.90
57829;DHT22;43657;52.698;6.314;2022-08-19T16:10:09;24.30;99.90
57829;DHT22;43657;52.698;6.314;2022-08-19T16:12:36;24.30;99.90
57829;DHT22;43657;52.698;6.314;2022-08-19T16:15:04;24.30;99.90
57829;DHT22;43657;52.698;6.314;2022-08-19T16:17:29;24.30;99.90
57829;DHT22;43657;52.698;6.314;2022-08-19T16:19:55;24.30;99.90
57829;DHT22;43657;52.698;6.314;2022-08-19T16:22:28;24.40;99.90
57829;DHT22;43657;52.698;6.314;2022-08-19T16:24:53;24.40;99.90
57829;DHT22;43657;52.698;6.314;2022-08-19T16:27:19;24.50;99.90
57829;DHT22;43657;52.698;6.314;2022-08-19T16:29:46;24.50;99.90
57829;DHT22;43657;52.698;6.314;2022-08-19T16:32:12;24.50;99.90
57829;DHT22;43657;52.698;6.314;2022-08-19T16:34:39;24.60;99.90
57829;DHT22;43657;52.698;6.314;2022-08-19T16:37:06;24.60;99.90
57829;DHT22;43657;52.698;6.314;2022-08-19T16:39:31;24.60;99.90